Terminal Aerodrome Forecast
Issued by NWS Jackson, MS

Current Version | Previous Version | Text Only | Print | Product List | Glossary On
Versions: 1 2 3 4 5 6 7 8 9 10 11 12
325
FTUS44 KJAN 241120
TAFMEI
TAF
KMEI 241120Z 2412/2512 00000KT P6SM FEW250
     FM241500 17006KT P6SM FEW250=

USA.gov is the U.S. government's official web portal to all federal, state and local government web resources and services.